METAR

SADR31 MDSD 170300Z
METAR

METAR MDPP 170300Z 00000KT 9999 FEW018 SCT300 20/19 Q1016=
METAR MDST 170300Z 00000KT 9999 FEW018 SCT300 24/23 Q1016=
METAR MDPC 170300Z 06004KT 9999 FEW020 25/22 Q1016=
METAR MDSD 170300Z 10004KT 9999 FEW016 SCT300 24/23 Q1016 NOSIG=
METAR MDLR 170300Z 00000KT 9999 FEW017 SCT300 21/21 Q1016=